sensor_id;sensor_type;location;lat;lon;timestamp;temperature;humidity
12156;DHT22;6141;49.092;8.516;2022-09-17T00:00:27;14.40;54.90
12156;DHT22;6141;49.092;8.516;2022-09-17T00:03:41;14.60;53.70
12156;DHT22;6141;49.092;8.516;2022-09-17T00:06:29;14.90;54.60
12156;DHT22;6141;49.092;8.516;2022-09-17T00:09:23;15.00;53.50
12156;DHT22;6141;49.092;8.516;2022-09-17T00:11:53;14.90;52.30
12156;DHT22;6141;49.092;8.516;2022-09-17T00:14:38;14.90;53.10
12156;DHT22;6141;49.092;8.516;2022-09-17T00:17:10;14.80;53.20
12156;DHT22;6141;49.092;8.516;2022-09-17T00:19:39;14.60;52.80
12156;DHT22;6141;49.092;8.516;2022-09-17T00:22:09;14.50;53.80
12156;DHT22;6141;49.092;8.516;2022-09-17T00:24:55;14.50;53.10
12156;DHT22;6141;49.092;8.516;2022-09-17T00:27:27;14.40;54.00
12156;DHT22;6141;49.092;8.516;2022-09-17T00:30:01;14.50;53.00
12156;DHT22;6141;49.092;8.516;2022-09-17T00:32:39;14.30;54.40
12156;DHT22;6141;49.092;8.516;2022-09-17T00:35:08;14.30;54.20
12156;DHT22;6141;49.092;8.516;2022-09-17T00:37:37;14.40;54.40
12156;DHT22;6141;49.092;8.516;2022-09-17T00:40:08;14.50;53.00
12156;DHT22;6141;49.092;8.516;2022-09-17T00:42:51;14.50;53.20
12156;DHT22;6141;49.092;8.516;2022-09-17T00:45:21;14.70;53.80
12156;DHT22;6141;49.092;8.516;2022-09-17T00:47:56;14.70;52.80
12156;DHT22;6141;49.092;8.516;2022-09-17T00:50:27;14.80;51.70
12156;DHT22;6141;49.092;8.516;2022-09-17T00:53:00;14.90;52.60
12156;DHT22;6141;49.092;8.516;2022-09-17T00:55:35;14.70;52.80
12156;DHT22;6141;49.092;8.516;2022-09-17T00:58:08;14.90;51.70
12156;DHT22;6141;49.092;8.516;2022-09-17T01:00:37;14.90;51.90
12156;DHT22;6141;49.092;8.516;2022-09-17T01:03:05;15.00;51.60
12156;DHT22;6141;49.092;8.516;2022-09-17T01:05:41;14.90;50.60
12156;DHT22;6141;49.092;8.516;2022-09-17T01:08:20;14.80;51.50
12156;DHT22;6141;49.092;8.516;2022-09-17T01:11:11;14.70;51.30
12156;DHT22;6141;49.092;8.516;2022-09-17T01:13:52;14.60;52.40
12156;DHT22;6141;49.092;8.516;2022-09-17T01:16:32;14.60;53.30
12156;DHT22;6141;49.092;8.516;2022-09-17T01:19:32;14.60;52.80
12156;DHT22;6141;49.092;8.516;2022-09-17T01:22:12;14.70;52.40
12156;DHT22;6141;49.092;8.516;2022-09-17T01:24:49;14.50;52.00
12156;DHT22;6141;49.092;8.516;2022-09-17T01:27:45;14.50;52.10
12156;DHT22;6141;49.092;8.516;2022-09-17T01:30:39;14.30;53.30
12156;DHT22;6141;49.092;8.516;2022-09-17T01:33:25;14.20;54.10
12156;DHT22;6141;49.092;8.516;2022-09-17T01:36:09;14.40;52.60
12156;DHT22;6141;49.092;8.516;2022-09-17T01:39:20;14.50;53.10
12156;DHT22;6141;49.092;8.516;2022-09-17T01:41:58;14.60;53.50
12156;DHT22;6141;49.092;8.516;2022-09-17T01:44:44;14.50;53.20
12156;DHT22;6141;49.092;8.516;2022-09-17T01:47:18;14.50;53.10
12156;DHT22;6141;49.092;8.516;2022-09-17T01:49:56;14.60;52.70
12156;DHT22;6141;49.092;8.516;2022-09-17T01:52:27;14.50;53.20
12156;DHT22;6141;49.092;8.516;2022-09-17T01:55:04;14.40;53.30
12156;DHT22;6141;49.092;8.516;2022-09-17T01:57:39;14.40;53.30
12156;DHT22;6141;49.092;8.516;2022-09-17T02:09:28;14.40;54.50
12156;DHT22;6141;49.092;8.516;2022-09-17T02:13:03;14.40;52.40
12156;DHT22;6141;49.092;8.516;2022-09-17T02:16:59;14.40;52.60
12156;DHT22;6141;49.092;8.516;2022-09-17T02:19:36;14.30;51.40
12156;DHT22;6141;49.092;8.516;2022-09-17T02:23:15;14.50;51.30
12156;DHT22;6141;49.092;8.516;2022-09-17T02:35:54;14.30;51.70
12156;DHT22;6141;49.092;8.516;2022-09-17T02:38:27;14.20;51.50
12156;DHT22;6141;49.092;8.516;2022-09-17T02:41:09;14.10;51.30
12156;DHT22;6141;49.092;8.516;2022-09-17T02:43:47;14.00;51.30
12156;DHT22;6141;49.092;8.516;2022-09-17T02:46:37;14.00;52.30
12156;DHT22;6141;49.092;8.516;2022-09-17T02:49:27;14.00;52.20
12156;DHT22;6141;49.092;8.516;2022-09-17T02:52:08;14.20;51.90
12156;DHT22;6141;49.092;8.516;2022-09-17T02:54:49;14.00;52.00
12156;DHT22;6141;49.092;8.516;2022-09-17T02:57:25;14.00;52.50
12156;DHT22;6141;49.092;8.516;2022-09-17T03:00:03;14.00;53.10
12156;DHT22;6141;49.092;8.516;2022-09-17T03:02:38;14.00;52.40
12156;DHT22;6141;49.092;8.516;2022-09-17T03:05:10;13.70;52.90
12156;DHT22;6141;49.092;8.516;2022-09-17T03:07:40;13.50;54.30
12156;DHT22;6141;49.092;8.516;2022-09-17T03:10:09;13.40;54.20
12156;DHT22;6141;49.092;8.516;2022-09-17T03:12:39;13.30;54.60
12156;DHT22;6141;49.092;8.516;2022-09-17T03:15:08;13.30;54.20
12156;DHT22;6141;49.092;8.516;2022-09-17T03:18:04;13.40;54.20
12156;DHT22;6141;49.092;8.516;2022-09-17T03:22:08;13.40;56.30
12156;DHT22;6141;49.092;8.516;2022-09-17T03:33:05;13.20;55.90
12156;DHT22;6141;49.092;8.516;2022-09-17T03:35:50;13.40;54.60
12156;DHT22;6141;49.092;8.516;2022-09-17T03:38:39;13.40;54.60
12156;DHT22;6141;49.092;8.516;2022-09-17T03:42:01;13.30;55.20
12156;DHT22;6141;49.092;8.516;2022-09-17T03:45:05;13.30;55.00
12156;DHT22;6141;49.092;8.516;2022-09-17T03:47:44;13.00;56.00
12156;DHT22;6141;49.092;8.516;2022-09-17T03:50:42;12.80;57.20
12156;DHT22;6141;49.092;8.516;2022-09-17T03:53:26;12.70;57.20
12156;DHT22;6141;49.092;8.516;2022-09-17T03:56:57;12.40;59.20
12156;DHT22;6141;49.092;8.516;2022-09-17T04:06:00;13.00;58.00
12156;DHT22;6141;49.092;8.516;2022-09-17T04:08:40;13.00;55.70
12156;DHT22;6141;49.092;8.516;2022-09-17T04:14:47;13.20;55.70
12156;DHT22;6141;49.092;8.516;2022-09-17T04:17:22;13.10;55.90
12156;DHT22;6141;49.092;8.516;2022-09-17T04:21:26;13.20;55.00
12156;DHT22;6141;49.092;8.516;2022-09-17T04:24:38;13.20;54.80
12156;DHT22;6141;49.092;8.516;2022-09-17T04:27:35;13.40;54.20
12156;DHT22;6141;49.092;8.516;2022-09-17T04:30:24;13.40;54.60
12156;DHT22;6141;49.092;8.516;2022-09-17T04:32:58;13.40;54.20
12156;DHT22;6141;49.092;8.516;2022-09-17T04:35:44;13.50;53.50
12156;DHT22;6141;49.092;8.516;2022-09-17T04:38:18;13.40;53.40
12156;DHT22;6141;49.092;8.516;2022-09-17T04:40:48;13.30;53.80
12156;DHT22;6141;49.092;8.516;2022-09-17T04:48:01;13.30;54.50
12156;DHT22;6141;49.092;8.516;2022-09-17T04:55:53;12.50;56.70
12156;DHT22;6141;49.092;8.516;2022-09-17T04:58:28;12.40;58.20
12156;DHT22;6141;49.092;8.516;2022-09-17T05:01:18;12.40;59.00
12156;DHT22;6141;49.092;8.516;2022-09-17T05:04:01;12.40;59.20
12156;DHT22;6141;49.092;8.516;2022-09-17T05:30:07;12.80;58.00
12156;DHT22;6141;49.092;8.516;2022-09-17T05:34:33;12.80;57.80
12156;DHT22;6141;49.092;8.516;2022-09-17T05:38:01;13.00;57.40
12156;DHT22;6141;49.092;8.516;2022-09-17T05:50:04;12.60;58.00
12156;DHT22;6141;49.092;8.516;2022-09-17T05:53:49;12.70;58.10
12156;DHT22;6141;49.092;8.516;2022-09-17T05:57:25;12.70;58.10
12156;DHT22;6141;49.092;8.516;2022-09-17T06:00:25;12.90;58.80
12156;DHT22;6141;49.092;8.516;2022-09-17T06:03:11;12.90;59.70
12156;DHT22;6141;49.092;8.516;2022-09-17T06:06:20;12.90;59.70
12156;DHT22;6141;49.092;8.516;2022-09-17T06:09:13;12.70;61.80
12156;DHT22;6141;49.092;8.516;2022-09-17T06:11:48;12.60;61.90
12156;DHT22;6141;49.092;8.516;2022-09-17T06:14:54;12.40;64.10
12156;DHT22;6141;49.092;8.516;2022-09-17T06:17:31;12.40;64.10
12156;DHT22;6141;49.092;8.516;2022-09-17T06:20:15;12.40;66.20
12156;DHT22;6141;49.092;8.516;2022-09-17T06:22:56;12.20;67.80
12156;DHT22;6141;49.092;8.516;2022-09-17T06:25:31;12.20;67.30
12156;DHT22;6141;49.092;8.516;2022-09-17T06:28:06;12.20;68.00
12156;DHT22;6141;49.092;8.516;2022-09-17T06:30:35;12.20;69.40
12156;DHT22;6141;49.092;8.516;2022-09-17T06:33:37;12.10;69.30
12156;DHT22;6141;49.092;8.516;2022-09-17T06:36:16;12.20;70.80
12156;DHT22;6141;49.092;8.516;2022-09-17T06:38:54;12.20;72.30
12156;DHT22;6141;49.092;8.516;2022-09-17T06:41:32;12.20;71.70
12156;DHT22;6141;49.092;8.516;2022-09-17T06:44:20;12.50;71.30
12156;DHT22;6141;49.092;8.516;2022-09-17T06:46:59;12.60;70.30
12156;DHT22;6141;49.092;8.516;2022-09-17T06:49:28;12.50;69.20
12156;DHT22;6141;49.092;8.516;2022-09-17T06:52:02;12.50;70.80
12156;DHT22;6141;49.092;8.516;2022-09-17T06:54:51;12.30;72.40
12156;DHT22;6141;49.092;8.516;2022-09-17T06:57:40;12.40;74.40
12156;DHT22;6141;49.092;8.516;2022-09-17T07:00:15;12.40;74.50
12156;DHT22;6141;49.092;8.516;2022-09-17T07:03:03;12.40;73.20
12156;DHT22;6141;49.092;8.516;2022-09-17T07:10:43;12.70;73.10
12156;DHT22;6141;49.092;8.516;2022-09-17T07:15:03;12.80;72.10
12156;DHT22;6141;49.092;8.516;2022-09-17T07:18:39;12.80;72.50
12156;DHT22;6141;49.092;8.516;2022-09-17T07:27:22;13.10;72.20
12156;DHT22;6141;49.092;8.516;2022-09-17T07:30:08;13.20;70.60
12156;DHT22;6141;49.092;8.516;2022-09-17T07:32:38;13.20;70.30
12156;DHT22;6141;49.092;8.516;2022-09-17T07:35:08;13.20;71.10
12156;DHT22;6141;49.092;8.516;2022-09-17T07:37:36;13.20;68.90
12156;DHT22;6141;49.092;8.516;2022-09-17T07:40:07;13.10;69.70
12156;DHT22;6141;49.092;8.516;2022-09-17T07:42:37;13.10;69.70
12156;DHT22;6141;49.092;8.516;2022-09-17T07:45:08;13.20;71.70
12156;DHT22;6141;49.092;8.516;2022-09-17T07:47:45;13.10;69.70
12156;DHT22;6141;49.092;8.516;2022-09-17T07:50:14;13.10;69.70
12156;DHT22;6141;49.092;8.516;2022-09-17T07:52:47;13.10;69.70
12156;DHT22;6141;49.092;8.516;2022-09-17T07:55:19;13.30;69.90
12156;DHT22;6141;49.092;8.516;2022-09-17T07:57:51;13.10;69.80
12156;DHT22;6141;49.092;8.516;2022-09-17T08:00:23;13.10;69.70
12156;DHT22;6141;49.092;8.516;2022-09-17T08:02:52;13.40;67.80
12156;DHT22;6141;49.092;8.516;2022-09-17T08:05:21;13.40;68.50
12156;DHT22;6141;49.092;8.516;2022-09-17T08:07:51;13.40;67.90
12156;DHT22;6141;49.092;8.516;2022-09-17T08:11:25;13.40;68.60
12156;DHT22;6141;49.092;8.516;2022-09-17T08:15:03;13.70;67.20
12156;DHT22;6141;49.092;8.516;2022-09-17T08:17:42;13.80;67.00
12156;DHT22;6141;49.092;8.516;2022-09-17T08:20:42;13.80;66.20
12156;DHT22;6141;49.092;8.516;2022-09-17T08:23:24;13.70;68.10
12156;DHT22;6141;49.092;8.516;2022-09-17T08:26:29;14.10;64.10
12156;DHT22;6141;49.092;8.516;2022-09-17T08:34:14;14.30;63.70
12156;DHT22;6141;49.092;8.516;2022-09-17T08:38:10;14.30;62.90
12156;DHT22;6141;49.092;8.516;2022-09-17T08:41:25;14.10;61.40
12156;DHT22;6141;49.092;8.516;2022-09-17T08:49:49;14.00;60.20
12156;DHT22;6141;49.092;8.516;2022-09-17T08:53:21;13.70;59.40
12156;DHT22;6141;49.092;8.516;2022-09-17T08:56:11;14.00;60.20
12156;DHT22;6141;49.092;8.516;2022-09-17T08:59:03;13.90;60.60
12156;DHT22;6141;49.092;8.516;2022-09-17T09:03:07;14.00;60.20
12156;DHT22;6141;49.092;8.516;2022-09-17T09:05:59;14.20;58.90
12156;DHT22;6141;49.092;8.516;2022-09-17T09:09:47;14.60;57.10
12156;DHT22;6141;49.092;8.516;2022-09-17T09:12:36;14.70;57.60
12156;DHT22;6141;49.092;8.516;2022-09-17T09:15:32;14.70;55.50
12156;DHT22;6141;49.092;8.516;2022-09-17T09:22:01;15.00;55.00
12156;DHT22;6141;49.092;8.516;2022-09-17T09:24:44;15.40;54.40
12156;DHT22;6141;49.092;8.516;2022-09-17T09:27:34;15.90;52.60
12156;DHT22;6141;49.092;8.516;2022-09-17T09:30:10;16.00;49.40
12156;DHT22;6141;49.092;8.516;2022-09-17T09:33:01;15.90;48.50
12156;DHT22;6141;49.092;8.516;2022-09-17T09:35:44;15.80;48.90
12156;DHT22;6141;49.092;8.516;2022-09-17T09:38:32;15.90;47.20
12156;DHT22;6141;49.092;8.516;2022-09-17T09:41:09;15.70;50.00
12156;DHT22;6141;49.092;8.516;2022-09-17T09:43:42;15.50;47.50
12156;DHT22;6141;49.092;8.516;2022-09-17T09:51:00;15.20;48.40
12156;DHT22;6141;49.092;8.516;2022-09-17T09:53:47;15.40;48.50
12156;DHT22;6141;49.092;8.516;2022-09-17T10:02:51;15.70;48.80
12156;DHT22;6141;49.092;8.516;2022-09-17T10:06:06;15.60;49.00
12156;DHT22;6141;49.092;8.516;2022-09-17T10:09:08;15.50;48.40
12156;DHT22;6141;49.092;8.516;2022-09-17T10:12:13;15.80;48.70
12156;DHT22;6141;49.092;8.516;2022-09-17T10:20:28;15.60;50.20
12156;DHT22;6141;49.092;8.516;2022-09-17T10:27:46;16.00;49.50
12156;DHT22;6141;49.092;8.516;2022-09-17T10:36:00;16.30;44.80
12156;DHT22;6141;49.092;8.516;2022-09-17T10:38:45;16.30;43.50
12156;DHT22;6141;49.092;8.516;2022-09-17T10:41:25;16.20;44.90
12156;DHT22;6141;49.092;8.516;2022-09-17T10:44:20;16.40;44.30
12156;DHT22;6141;49.092;8.516;2022-09-17T10:47:06;16.40;44.90
12156;DHT22;6141;49.092;8.516;2022-09-17T10:50:01;16.80;42.00
12156;DHT22;6141;49.092;8.516;2022-09-17T10:52:37;16.70;38.80
12156;DHT22;6141;49.092;8.516;2022-09-17T10:55:45;16.50;41.60
12156;DHT22;6141;49.092;8.516;2022-09-17T11:06:06;16.20;41.80
12156;DHT22;6141;49.092;8.516;2022-09-17T11:09:37;16.00;43.50
12156;DHT22;6141;49.092;8.516;2022-09-17T11:13:26;15.80;44.40
12156;DHT22;6141;49.092;8.516;2022-09-17T11:16:35;15.80;44.30
12156;DHT22;6141;49.092;8.516;2022-09-17T11:23:10;16.00;44.50
12156;DHT22;6141;49.092;8.516;2022-09-17T11:43:20;15.60;50.00
12156;DHT22;6141;49.092;8.516;2022-09-17T11:45:58;15.20;52.40
12156;DHT22;6141;49.092;8.516;2022-09-17T11:48:34;15.20;58.30
12156;DHT22;6141;49.092;8.516;2022-09-17T11:51:22;14.90;56.80
12156;DHT22;6141;49.092;8.516;2022-09-17T11:53:55;14.80;63.30
12156;DHT22;6141;49.092;8.516;2022-09-17T12:07:14;15.00;61.50
12156;DHT22;6141;49.092;8.516;2022-09-17T12:09:49;14.60;61.90
12156;DHT22;6141;49.092;8.516;2022-09-17T12:12:23;14.70;64.70
12156;DHT22;6141;49.092;8.516;2022-09-17T12:15:37;14.70;63.70
12156;DHT22;6141;49.092;8.516;2022-09-17T12:18:41;14.50;63.20
12156;DHT22;6141;49.092;8.516;2022-09-17T12:21:32;14.50;66.50
12156;DHT22;6141;49.092;8.516;2022-09-17T12:27:42;14.50;66.00
12156;DHT22;6141;49.092;8.516;2022-09-17T12:30:36;14.80;66.90
12156;DHT22;6141;49.092;8.516;2022-09-17T12:33:17;14.80;64.30
12156;DHT22;6141;49.092;8.516;2022-09-17T12:36:04;14.90;63.80
12156;DHT22;6141;49.092;8.516;2022-09-17T12:39:00;15.00;64.30
12156;DHT22;6141;49.092;8.516;2022-09-17T12:41:46;14.80;64.50
12156;DHT22;6141;49.092;8.516;2022-09-17T12:44:40;15.10;66.50
12156;DHT22;6141;49.092;8.516;2022-09-17T12:47:41;15.20;65.00
12156;DHT22;6141;49.092;8.516;2022-09-17T12:50:27;15.20;61.70
12156;DHT22;6141;49.092;8.516;2022-09-17T12:53:13;15.10;61.60
12156;DHT22;6141;49.092;8.516;2022-09-17T12:55:49;14.90;61.40
12156;DHT22;6141;49.092;8.516;2022-09-17T12:58:32;15.20;61.70
12156;DHT22;6141;49.092;8.516;2022-09-17T13:01:12;15.20;59.90
12156;DHT22;6141;49.092;8.516;2022-09-17T13:03:45;15.30;57.90
12156;DHT22;6141;49.092;8.516;2022-09-17T13:06:36;15.20;60.60
12156;DHT22;6141;49.092;8.516;2022-09-17T13:09:29;15.20;61.70
12156;DHT22;6141;49.092;8.516;2022-09-17T13:12:10;15.40;59.90
12156;DHT22;6141;49.092;8.516;2022-09-17T13:15:01;15.40;61.10
12156;DHT22;6141;49.092;8.516;2022-09-17T13:17:41;15.60;56.90
12156;DHT22;6141;49.092;8.516;2022-09-17T13:20:31;15.70;58.30
12156;DHT22;6141;49.092;8.516;2022-09-17T13:23:01;15.90;56.70
12156;DHT22;6141;49.092;8.516;2022-09-17T13:25:31;15.80;55.70
12156;DHT22;6141;49.092;8.516;2022-09-17T13:28:07;15.80;54.70
12156;DHT22;6141;49.092;8.516;2022-09-17T13:30:55;15.70;56.50
12156;DHT22;6141;49.092;8.516;2022-09-17T13:33:51;15.70;57.40
12156;DHT22;6141;49.092;8.516;2022-09-17T13:36:53;15.80;52.10
12156;DHT22;6141;49.092;8.516;2022-09-17T13:39:47;15.80;53.70
12156;DHT22;6141;49.092;8.516;2022-09-17T13:42:20;16.10;54.30
12156;DHT22;6141;49.092;8.516;2022-09-17T13:45:02;16.20;50.20
12156;DHT22;6141;49.092;8.516;2022-09-17T13:47:38;16.50;49.20
12156;DHT22;6141;49.092;8.516;2022-09-17T13:50:24;16.80;48.10
12156;DHT22;6141;49.092;8.516;2022-09-17T13:52:54;17.00;46.20
12156;DHT22;6141;49.092;8.516;2022-09-17T13:55:34;17.10;46.10
12156;DHT22;6141;49.092;8.516;2022-09-17T13:58:24;17.20;45.70
12156;DHT22;6141;49.092;8.516;2022-09-17T14:00:54;17.10;45.60
12156;DHT22;6141;49.092;8.516;2022-09-17T14:03:53;17.10;47.10
12156;DHT22;6141;49.092;8.516;2022-09-17T14:07:00;16.90;45.40
12156;DHT22;6141;49.092;8.516;2022-09-17T14:10:01;16.70;45.20
12156;DHT22;6141;49.092;8.516;2022-09-17T14:12:59;16.60;41.70
12156;DHT22;6141;49.092;8.516;2022-09-17T14:19:28;16.90;43.50
12156;DHT22;6141;49.092;8.516;2022-09-17T14:22:16;16.90;39.00
12156;DHT22;6141;49.092;8.516;2022-09-17T14:24:54;16.90;39.00
12156;DHT22;6141;49.092;8.516;2022-09-17T14:27:39;16.90;37.90
12156;DHT22;6141;49.092;8.516;2022-09-17T14:30:13;16.80;39.40
12156;DHT22;6141;49.092;8.516;2022-09-17T14:32:48;16.80;41.00
12156;DHT22;6141;49.092;8.516;2022-09-17T14:35:27;16.80;40.50
12156;DHT22;6141;49.092;8.516;2022-09-17T14:38:01;17.00;39.10
12156;DHT22;6141;49.092;8.516;2022-09-17T14:40:32;17.10;40.70
12156;DHT22;6141;49.092;8.516;2022-09-17T14:43:02;16.90;39.00
12156;DHT22;6141;49.092;8.516;2022-09-17T14:45:32;16.90;37.50
12156;DHT22;6141;49.092;8.516;2022-09-17T14:48:17;16.90;39.00
12156;DHT22;6141;49.092;8.516;2022-09-17T14:50:45;16.90;39.00
12156;DHT22;6141;49.092;8.516;2022-09-17T14:53:21;16.80;38.90
12156;DHT22;6141;49.092;8.516;2022-09-17T14:55:50;16.80;38.90
12156;DHT22;6141;49.092;8.516;2022-09-17T14:58:30;16.70;38.80
12156;DHT22;6141;49.092;8.516;2022-09-17T15:01:03;16.60;39.80
12156;DHT22;6141;49.092;8.516;2022-09-17T15:03:36;16.60;38.70
12156;DHT22;6141;49.092;8.516;2022-09-17T15:06:19;16.80;38.90
12156;DHT22;6141;49.092;8.516;2022-09-17T15:12:17;16.30;38.40
12156;DHT22;6141;49.092;8.516;2022-09-17T15:14:48;16.20;38.20
12156;DHT22;6141;49.092;8.516;2022-09-17T15:17:17;16.10;38.20
12156;DHT22;6141;49.092;8.516;2022-09-17T15:19:48;16.20;39.10
12156;DHT22;6141;49.092;8.516;2022-09-17T15:22:21;16.10;38.60
12156;DHT22;6141;49.092;8.516;2022-09-17T15:24:54;15.90;39.10
12156;DHT22;6141;49.092;8.516;2022-09-17T15:27:28;15.80;39.40
12156;DHT22;6141;49.092;8.516;2022-09-17T15:30:00;15.80;38.70
12156;DHT22;6141;49.092;8.516;2022-09-17T15:32:29;16.00;40.80
12156;DHT22;6141;49.092;8.516;2022-09-17T15:35:29;15.90;40.50
12156;DHT22;6141;49.092;8.516;2022-09-17T15:37:59;16.10;41.00
12156;DHT22;6141;49.092;8.516;2022-09-17T15:40:49;16.00;40.10
12156;DHT22;6141;49.092;8.516;2022-09-17T15:43:25;16.00;39.40
12156;DHT22;6141;49.092;8.516;2022-09-17T15:45:55;16.10;40.20
12156;DHT22;6141;49.092;8.516;2022-09-17T15:48:36;15.80;42.50
12156;DHT22;6141;49.092;8.516;2022-09-17T15:51:20;16.10;42.00
12156;DHT22;6141;49.092;8.516;2022-09-17T15:53:51;16.20;43.30
12156;DHT22;6141;49.092;8.516;2022-09-17T15:56:22;16.00;43.30
12156;DHT22;6141;49.092;8.516;2022-09-17T15:58:59;16.30;43.60
12156;DHT22;6141;49.092;8.516;2022-09-17T16:01:49;16.30;43.60
12156;DHT22;6141;49.092;8.516;2022-09-17T16:04:28;16.50;43.90
12156;DHT22;6141;49.092;8.516;2022-09-17T16:07:25;16.70;42.60
12156;DHT22;6141;49.092;8.516;2022-09-17T16:09:55;16.90;42.30
12156;DHT22;6141;49.092;8.516;2022-09-17T16:12:26;16.90;42.00
12156;DHT22;6141;49.092;8.516;2022-09-17T16:14:59;17.10;42.70
12156;DHT22;6141;49.092;8.516;2022-09-17T16:17:31;16.70;44.30
12156;DHT22;6141;49.092;8.516;2022-09-17T16:20:13;16.30;51.00
12156;DHT22;6141;49.092;8.516;2022-09-17T16:22:42;15.80;55.20
12156;DHT22;6141;49.092;8.516;2022-09-17T16:25:26;15.60;56.50
12156;DHT22;6141;49.092;8.516;2022-09-17T16:28:03;15.40;57.20
12156;DHT22;6141;49.092;8.516;2022-09-17T16:30:36;15.30;57.40
12156;DHT22;6141;49.092;8.516;2022-09-17T16:33:12;15.40;57.50
12156;DHT22;6141;49.092;8.516;2022-09-17T16:35:42;15.50;57.20
12156;DHT22;6141;49.092;8.516;2022-09-17T16:38:11;15.70;57.00
12156;DHT22;6141;49.092;8.516;2022-09-17T16:40:41;15.80;58.10
12156;DHT22;6141;49.092;8.516;2022-09-17T16:43:10;15.80;57.40
12156;DHT22;6141;49.092;8.516;2022-09-17T16:45:40;16.00;56.90
12156;DHT22;6141;49.092;8.516;2022-09-17T16:48:09;15.80;53.90
12156;DHT22;6141;49.092;8.516;2022-09-17T16:50:39;15.60;54.50
12156;DHT22;6141;49.092;8.516;2022-09-17T16:53:09;15.40;54.20
12156;DHT22;6141;49.092;8.516;2022-09-17T16:55:37;15.30;53.80
12156;DHT22;6141;49.092;8.516;2022-09-17T16:58:07;15.20;56.10
12156;DHT22;6141;49.092;8.516;2022-09-17T17:00:43;15.30;53.50
12156;DHT22;6141;49.092;8.516;2022-09-17T17:03:16;15.40;53.10
12156;DHT22;6141;49.092;8.516;2022-09-17T17:05:46;15.40;53.90
12156;DHT22;6141;49.092;8.516;2022-09-17T17:08:16;15.30;53.30
12156;DHT22;6141;49.092;8.516;2022-09-17T17:10:48;15.10;55.30
12156;DHT22;6141;49.092;8.516;2022-09-17T17:13:19;15.30;53.40
12156;DHT22;6141;49.092;8.516;2022-09-17T17:16:07;15.10;54.40
12156;DHT22;6141;49.092;8.516;2022-09-17T17:18:47;14.90;54.90
12156;DHT22;6141;49.092;8.516;2022-09-17T17:21:19;15.00;55.90
12156;DHT22;6141;49.092;8.516;2022-09-17T17:23:48;14.90;57.80
12156;DHT22;6141;49.092;8.516;2022-09-17T17:26:19;15.00;56.20
12156;DHT22;6141;49.092;8.516;2022-09-17T17:28:52;14.90;55.70
12156;DHT22;6141;49.092;8.516;2022-09-17T17:31:29;14.80;55.60
12156;DHT22;6141;49.092;8.516;2022-09-17T17:34:06;14.80;54.70
12156;DHT22;6141;49.092;8.516;2022-09-17T17:36:35;14.70;54.50
12156;DHT22;6141;49.092;8.516;2022-09-17T17:39:04;14.80;54.80
12156;DHT22;6141;49.092;8.516;2022-09-17T17:41:40;14.70;55.90
12156;DHT22;6141;49.092;8.516;2022-09-17T17:44:13;14.90;55.20
12156;DHT22;6141;49.092;8.516;2022-09-17T17:46:50;15.00;55.10
12156;DHT22;6141;49.092;8.516;2022-09-17T17:49:24;14.90;54.80
12156;DHT22;6141;49.092;8.516;2022-09-17T17:51:57;15.00;55.30
12156;DHT22;6141;49.092;8.516;2022-09-17T17:54:32;14.80;55.10
12156;DHT22;6141;49.092;8.516;2022-09-17T17:57:00;14.90;55.70
12156;DHT22;6141;49.092;8.516;2022-09-17T17:59:29;14.90;55.00
12156;DHT22;6141;49.092;8.516;2022-09-17T18:02:02;15.00;54.60
12156;DHT22;6141;49.092;8.516;2022-09-17T18:04:37;14.90;53.20
12156;DHT22;6141;49.092;8.516;2022-09-17T18:07:30;14.90;54.20
12156;DHT22;6141;49.092;8.516;2022-09-17T18:15:49;14.60;57.50
12156;DHT22;6141;49.092;8.516;2022-09-17T18:18:35;14.70;60.60
12156;DHT22;6141;49.092;8.516;2022-09-17T18:21:13;14.60;62.20
12156;DHT22;6141;49.092;8.516;2022-09-17T18:26:25;14.50;61.10
12156;DHT22;6141;49.092;8.516;2022-09-17T18:29:22;14.30;62.90
12156;DHT22;6141;49.092;8.516;2022-09-17T18:39:42;14.30;60.90
12156;DHT22;6141;49.092;8.516;2022-09-17T18:42:31;14.20;60.80
12156;DHT22;6141;49.092;8.516;2022-09-17T18:45:18;14.30;60.50
12156;DHT22;6141;49.092;8.516;2022-09-17T18:48:01;14.20;60.80
12156;DHT22;6141;49.092;8.516;2022-09-17T18:50:34;14.20;60.80
12156;DHT22;6141;49.092;8.516;2022-09-17T18:53:14;14.30;59.50
12156;DHT22;6141;49.092;8.516;2022-09-17T18:55:47;14.20;58.20
12156;DHT22;6141;49.092;8.516;2022-09-17T18:58:16;14.40;58.00
12156;DHT22;6141;49.092;8.516;2022-09-17T19:00:48;14.30;57.50
12156;DHT22;6141;49.092;8.516;2022-09-17T19:03:17;14.10;55.80
12156;DHT22;6141;49.092;8.516;2022-09-17T19:05:49;14.10;55.90
12156;DHT22;6141;49.092;8.516;2022-09-17T19:08:20;13.80;57.20
12156;DHT22;6141;49.092;8.516;2022-09-17T19:10:55;13.80;57.00
12156;DHT22;6141;49.092;8.516;2022-09-17T19:13:25;13.90;53.70
12156;DHT22;6141;49.092;8.516;2022-09-17T19:15:57;13.90;54.10
12156;DHT22;6141;49.092;8.516;2022-09-17T19:18:32;13.90;54.40
12156;DHT22;6141;49.092;8.516;2022-09-17T19:21:11;13.80;55.10
12156;DHT22;6141;49.092;8.516;2022-09-17T19:23:41;13.60;55.00
12156;DHT22;6141;49.092;8.516;2022-09-17T19:26:13;13.80;54.60
12156;DHT22;6141;49.092;8.516;2022-09-17T19:28:41;13.80;55.90
12156;DHT22;6141;49.092;8.516;2022-09-17T19:31:12;14.00;54.80
12156;DHT22;6141;49.092;8.516;2022-09-17T19:33:42;13.70;55.80
12156;DHT22;6141;49.092;8.516;2022-09-17T19:36:13;13.80;56.20
12156;DHT22;6141;49.092;8.516;2022-09-17T19:38:42;13.80;55.60
12156;DHT22;6141;49.092;8.516;2022-09-17T19:41:14;14.00;55.10
12156;DHT22;6141;49.092;8.516;2022-09-17T19:43:49;13.90;55.40
12156;DHT22;6141;49.092;8.516;2022-09-17T19:46:20;13.90;56.40
12156;DHT22;6141;49.092;8.516;2022-09-17T19:49:04;14.10;57.20
12156;DHT22;6141;49.092;8.516;2022-09-17T19:51:42;14.10;57.10
12156;DHT22;6141;49.092;8.516;2022-09-17T19:54:32;14.00;56.80
12156;DHT22;6141;49.092;8.516;2022-09-17T19:57:25;14.00;56.90
12156;DHT22;6141;49.092;8.516;2022-09-17T20:00:06;13.80;57.40
12156;DHT22;6141;49.092;8.516;2022-09-17T20:03:09;13.80;58.60
12156;DHT22;6141;49.092;8.516;2022-09-17T20:06:12;13.60;58.30
12156;DHT22;6141;49.092;8.516;2022-09-17T20:08:55;13.60;58.30
12156;DHT22;6141;49.092;8.516;2022-09-17T20:11:38;13.40;59.60
12156;DHT22;6141;49.092;8.516;2022-09-17T20:14:24;13.50;60.30
12156;DHT22;6141;49.092;8.516;2022-09-17T20:17:13;13.40;61.10
12156;DHT22;6141;49.092;8.516;2022-09-17T20:19:49;13.20;61.20
12156;DHT22;6141;49.092;8.516;2022-09-17T20:22:28;13.00;63.50
12156;DHT22;6141;49.092;8.516;2022-09-17T20:24:58;12.80;66.00
12156;DHT22;6141;49.092;8.516;2022-09-17T20:27:29;13.10;66.70
12156;DHT22;6141;49.092;8.516;2022-09-17T20:30:07;13.20;65.90
12156;DHT22;6141;49.092;8.516;2022-09-17T20:32:36;13.20;65.10
12156;DHT22;6141;49.092;8.516;2022-09-17T20:35:07;13.50;65.10
12156;DHT22;6141;49.092;8.516;2022-09-17T20:37:58;13.50;63.90
12156;DHT22;6141;49.092;8.516;2022-09-17T20:40:48;13.70;63.70
12156;DHT22;6141;49.092;8.516;2022-09-17T20:43:17;13.80;62.50
12156;DHT22;6141;49.092;8.516;2022-09-17T20:45:59;13.90;62.20
12156;DHT22;6141;49.092;8.516;2022-09-17T20:48:32;14.10;61.70